createdAt,value
2023-01-15T00:01:39.348Z,97425.50
2023-01-15T00:04:12.569Z,97418.47
2023-01-15T00:06:44.513Z,97416.75
2023-01-15T00:09:17.496Z,97414.50
2023-01-15T00:11:47.762Z,97419.41
2023-01-15T00:14:17.819Z,97416.16
2023-01-15T00:16:52.136Z,97410.44
2023-01-15T00:19:23.922Z,97404.56
2023-01-15T00:21:54.456Z,97402.22
2023-01-15T00:24:42.630Z,97395.53
2023-01-15T00:27:30.683Z,97391.22
2023-01-15T00:30:00.954Z,97384.75
2023-01-15T00:32:31.138Z,97381.97
2023-01-15T00:35:03.656Z,97374.81
2023-01-15T00:37:34.426Z,97376.13
2023-01-15T00:40:04.312Z,97375.94
2023-01-15T00:42:35.093Z,97367.72
2023-01-15T00:45:10.513Z,97375.81
2023-01-15T00:47:41.996Z,97374.97
2023-01-15T00:50:15.927Z,97367.66
2023-01-15T00:52:46.354Z,97374.72
2023-01-15T00:55:16.884Z,97362.94
2023-01-15T00:57:46.277Z,97353.97
2023-01-15T01:00:20.322Z,97353.03
2023-01-15T01:02:50.474Z,97354.44
2023-01-15T01:05:22.593Z,97355.47
2023-01-15T01:07:53.113Z,97345.47
2023-01-15T01:10:23.959Z,97344.94
2023-01-15T01:12:54.715Z,97341.66
2023-01-15T01:15:26.948Z,97344.84
2023-01-15T01:17:58.336Z,97348.09
2023-01-15T01:20:30.314Z,97334.72
2023-01-15T01:23:00.732Z,97332.25
2023-01-15T01:25:31.167Z,97342.97
2023-01-15T01:28:01.164Z,97335.13
2023-01-15T01:30:32.125Z,97325.75
2023-01-15T01:33:02.034Z,97315.31
2023-01-15T01:35:34.323Z,97321.03
2023-01-15T01:38:04.357Z,97317.16
2023-01-15T01:40:34.646Z,97314.06
2023-01-15T01:43:05.202Z,97311.59
2023-01-15T01:45:36.579Z,97303.41
2023-01-15T01:48:08.881Z,97301.69
2023-01-15T01:50:42.556Z,97299.63
2023-01-15T01:53:15.093Z,97286.63
2023-01-15T01:55:44.972Z,97289.94
2023-01-15T01:58:16.192Z,97286.31
2023-01-15T02:00:48.737Z,97289.03
2023-01-15T02:03:20.522Z,97287.53
2023-01-15T02:05:55.876Z,97281.00
2023-01-15T02:08:26.246Z,97272.66
2023-01-15T02:10:57.719Z,97269.81
2023-01-15T02:13:34.098Z,97270.34
2023-01-15T02:16:10.449Z,97259.28
2023-01-15T02:18:47.592Z,97264.88
2023-01-15T02:21:25.460Z,97242.53
2023-01-15T02:24:10.287Z,97234.81
2023-01-15T02:27:09.769Z,97224.63
2023-01-15T02:29:47.806Z,97227.69
2023-01-15T02:32:25.644Z,97235.22
2023-01-15T02:35:00.654Z,97222.38
2023-01-15T02:37:34.056Z,97225.72
2023-01-15T02:40:06.122Z,97217.25
2023-01-15T02:42:38.938Z,97232.59
2023-01-15T02:45:12.076Z,97225.06
2023-01-15T02:47:43.806Z,97217.56
2023-01-15T02:50:18.090Z,97210.34
2023-01-15T02:52:50.434Z,97210.22
2023-01-15T02:55:22.334Z,97213.41
2023-01-15T02:57:56.825Z,97204.19
2023-01-15T03:00:30.084Z,97209.25
2023-01-15T03:03:04.231Z,97188.59
2023-01-15T03:05:38.481Z,97196.25
2023-01-15T03:08:11.456Z,97183.63
2023-01-15T03:10:52.046Z,97179.56
2023-01-15T03:13:31.885Z,97180.53
2023-01-15T03:16:23.711Z,97181.25
2023-01-15T03:18:57.959Z,97166.88
2023-01-15T03:21:32.601Z,97166.09
2023-01-15T03:24:04.690Z,97169.13
2023-01-15T03:26:34.440Z,97158.63
2023-01-15T03:29:08.852Z,97152.34
2023-01-15T03:31:39.777Z,97149.50
2023-01-15T03:34:11.966Z,97153.06
2023-01-15T03:36:41.933Z,97147.19
2023-01-15T03:39:12.978Z,97141.38
2023-01-15T03:41:53.952Z,97133.63
2023-01-15T03:44:33.705Z,97123.78
2023-01-15T03:47:11.951Z,97134.16
2023-01-15T03:49:51.681Z,97131.56
2023-01-15T03:52:27.338Z,97124.97
2023-01-15T03:55:06.366Z,97114.44
2023-01-15T03:57:40.032Z,97099.19
2023-01-15T04:00:17.392Z,97110.81
2023-01-15T04:02:48.712Z,97101.38
2023-01-15T04:05:19.756Z,97104.91
2023-01-15T04:07:51.157Z,97095.72
2023-01-15T04:10:21.804Z,97094.28
2023-01-15T04:12:52.462Z,97098.97
2023-01-15T04:15:25.237Z,97100.28
2023-01-15T04:17:55.747Z,97098.50
2023-01-15T04:20:25.697Z,97088.34
2023-01-15T04:22:56.131Z,97097.63
2023-01-15T04:25:26.359Z,97081.16
2023-01-15T04:27:56.732Z,97080.63
2023-01-15T04:30:29.724Z,97078.69
2023-01-15T04:33:00.259Z,97089.13
2023-01-15T04:35:30.836Z,97081.75
2023-01-15T04:38:02.367Z,97081.41
2023-01-15T04:41:01.115Z,97069.63
2023-01-15T04:43:48.814Z,97066.91
2023-01-15T04:46:23.663Z,97062.41
2023-01-15T04:48:53.892Z,97058.06
2023-01-15T04:51:24.222Z,97057.59
2023-01-15T04:53:54.449Z,97050.91
2023-01-15T04:56:25.367Z,97047.31
2023-01-15T04:58:55.181Z,97041.13
2023-01-15T05:01:27.069Z,97037.78
2023-01-15T05:03:59.000Z,97036.00
2023-01-15T05:06:29.596Z,97034.69
2023-01-15T05:08:59.092Z,97037.56
2023-01-15T05:11:29.877Z,97039.81
2023-01-15T05:14:00.256Z,97031.25
2023-01-15T05:16:32.742Z,97026.66
2023-01-15T05:19:05.312Z,97011.50
2023-01-15T05:21:38.287Z,97014.38
2023-01-15T05:24:11.852Z,97001.38
2023-01-15T05:26:42.470Z,97011.63
2023-01-15T05:29:13.785Z,97000.16
2023-01-15T05:31:46.479Z,96998.22
2023-01-15T05:34:17.609Z,97002.34
2023-01-15T05:36:48.071Z,96998.66
2023-01-15T05:39:18.971Z,96996.66
2023-01-15T05:41:53.192Z,96994.25
2023-01-15T05:44:26.517Z,96996.22
2023-01-15T05:47:01.358Z,96992.94
2023-01-15T05:49:33.057Z,96996.22
2023-01-15T05:52:04.719Z,96995.63
2023-01-15T05:54:36.218Z,96996.25
2023-01-15T05:57:06.500Z,97003.78
2023-01-15T05:59:37.007Z,96993.44
2023-01-15T06:02:08.414Z,96994.59
2023-01-15T06:04:38.053Z,97005.56
2023-01-15T06:07:08.813Z,96995.47
2023-01-15T06:09:38.890Z,96996.16
2023-01-15T06:12:10.189Z,96997.72
2023-01-15T06:14:41.208Z,96999.66
2023-01-15T06:17:13.129Z,96998.69
2023-01-15T06:19:43.127Z,96995.38
2023-01-15T06:22:13.613Z,97000.84
2023-01-15T06:24:43.947Z,97004.16
2023-01-15T06:27:13.969Z,97003.69
2023-01-15T06:29:44.126Z,96999.56
2023-01-15T06:32:21.427Z,97001.50
2023-01-15T06:34:51.895Z,96991.25
2023-01-15T06:37:22.582Z,96989.78
2023-01-15T06:39:53.151Z,96979.16
2023-01-15T06:42:40.835Z,96989.53
2023-01-15T06:45:29.707Z,96992.44
2023-01-15T06:48:02.172Z,96986.22
2023-01-15T06:50:31.778Z,96991.84
2023-01-15T06:53:01.849Z,96990.56
2023-01-15T06:55:31.656Z,96978.94
2023-01-15T06:58:01.641Z,96981.88
2023-01-15T07:00:32.448Z,96983.56
2023-01-15T07:03:06.637Z,96984.88
2023-01-15T07:05:36.567Z,96978.94
2023-01-15T07:08:06.873Z,96974.16
2023-01-15T07:10:38.165Z,96974.41
2023-01-15T07:13:08.838Z,96969.09
2023-01-15T07:15:41.239Z,96954.72
2023-01-15T07:18:13.271Z,96955.97
2023-01-15T07:20:43.288Z,96961.94
2023-01-15T07:23:14.973Z,96957.50
2023-01-15T07:25:45.979Z,96962.78
2023-01-15T07:28:16.378Z,96963.38
2023-01-15T07:30:46.953Z,96964.22
2023-01-15T07:33:19.358Z,96961.97
2023-01-15T07:35:49.192Z,96952.38
2023-01-15T07:38:19.508Z,96948.84
2023-01-15T07:41:10.199Z,96945.91
2023-01-15T07:44:03.000Z,96942.47
2023-01-15T07:46:50.693Z,96945.94
2023-01-15T07:49:40.067Z,96946.69
2023-01-15T07:52:10.117Z,96935.97
2023-01-15T07:54:40.748Z,96930.59
2023-01-15T07:57:11.910Z,96932.13
2023-01-15T07:59:42.640Z,96922.53
2023-01-15T08:02:13.372Z,96911.44
2023-01-15T08:04:45.340Z,96902.59
2023-01-15T08:07:15.900Z,96909.88
2023-01-15T08:09:46.685Z,96906.00
2023-01-15T08:12:33.173Z,96906.06
2023-01-15T08:15:17.517Z,96911.41
2023-01-15T08:17:48.908Z,96899.84
2023-01-15T08:20:22.555Z,96901.44
2023-01-15T08:22:53.016Z,96907.53
2023-01-15T08:25:26.642Z,96914.09
2023-01-15T08:27:57.578Z,96925.59
2023-01-15T08:30:27.968Z,96933.66
2023-01-15T08:33:03.722Z,96915.63
2023-01-15T08:35:35.899Z,96907.53
2023-01-15T08:38:09.359Z,96908.31
2023-01-15T08:40:59.171Z,96905.63
2023-01-15T08:43:30.129Z,96899.00
2023-01-15T08:46:01.496Z,96913.59
2023-01-15T08:48:33.459Z,96923.19
2023-01-15T08:51:08.940Z,96925.13
2023-01-15T08:53:40.048Z,96918.91
2023-01-15T08:56:15.184Z,96917.09
2023-01-15T08:58:47.702Z,96915.84
2023-01-15T09:01:24.161Z,96914.25
2023-01-15T09:03:54.440Z,96908.88
2023-01-15T09:06:25.513Z,96896.44
2023-01-15T09:08:54.992Z,96910.28
2023-01-15T09:11:25.195Z,96910.94
2023-01-15T09:13:55.040Z,96903.16
2023-01-15T09:16:28.241Z,96895.97
2023-01-15T09:18:58.640Z,96899.63
2023-01-15T09:21:30.861Z,96880.19
2023-01-15T09:24:01.258Z,96874.50
2023-01-15T09:26:33.392Z,96872.06
2023-01-15T09:29:03.958Z,96876.69
2023-01-15T09:31:34.838Z,96861.56
2023-01-15T09:34:06.401Z,96862.66
2023-01-15T09:36:39.786Z,96850.94
2023-01-15T09:39:11.867Z,96854.03
2023-01-15T09:42:08.779Z,96850.09
2023-01-15T09:45:07.953Z,96846.69
2023-01-15T09:47:41.618Z,96842.31
2023-01-15T09:50:24.933Z,96834.66
2023-01-15T09:53:12.868Z,96828.31
2023-01-15T09:55:48.629Z,96827.59
2023-01-15T09:58:21.721Z,96833.03
2023-01-15T10:00:53.265Z,96828.38
2023-01-15T10:03:34.419Z,96824.59
2023-01-15T10:06:10.123Z,96818.31
2023-01-15T10:08:44.784Z,96825.44
2023-01-15T10:11:51.305Z,96814.41
2023-01-15T10:14:41.430Z,96808.31
2023-01-15T10:17:24.436Z,96810.41
2023-01-15T10:19:55.923Z,96810.25
2023-01-15T10:22:52.316Z,96798.81
2023-01-15T10:25:28.717Z,96795.00
2023-01-15T10:28:05.658Z,96796.53
2023-01-15T10:30:41.640Z,96795.75
2023-01-15T10:33:22.341Z,96786.56
2023-01-15T10:35:58.975Z,96788.78
2023-01-15T10:38:34.274Z,96783.31
2023-01-15T10:41:18.330Z,96791.41
2023-01-15T10:43:52.996Z,96771.41
2023-01-15T10:46:27.399Z,96766.34
2023-01-15T10:49:01.392Z,96755.34
2023-01-15T10:51:36.622Z,96743.06
2023-01-15T10:54:10.399Z,96740.03
2023-01-15T10:56:45.933Z,96741.47
2023-01-15T10:59:22.580Z,96738.34
2023-01-15T11:01:54.750Z,96728.25
2023-01-15T11:04:24.693Z,96728.25
2023-01-15T11:06:55.427Z,96732.00
2023-01-15T11:09:31.673Z,96731.13
2023-01-15T11:12:32.818Z,96724.75
2023-01-15T11:15:20.142Z,96723.03
2023-01-15T11:18:09.614Z,96723.19
2023-01-15T11:20:47.333Z,96720.78
2023-01-15T11:23:20.794Z,96716.13
2023-01-15T11:25:52.720Z,96713.28
2023-01-15T11:28:40.688Z,96713.44
2023-01-15T11:31:11.295Z,96705.69
2023-01-15T11:33:42.572Z,96710.06
2023-01-15T11:36:23.756Z,96715.63
2023-01-15T11:38:55.688Z,96694.19
2023-01-15T11:41:51.143Z,96675.94
2023-01-15T11:44:42.559Z,96671.84
2023-01-15T11:47:31.377Z,96670.53
2023-01-15T11:50:19.310Z,96669.66
2023-01-15T11:52:52.099Z,96683.31
2023-01-15T11:55:24.468Z,96687.69
2023-01-15T11:58:00.422Z,96669.66
2023-01-15T12:00:44.261Z,96660.88
2023-01-15T12:03:18.269Z,96680.25
2023-01-15T12:05:49.910Z,96679.41
2023-01-15T12:08:31.033Z,96659.50
2023-01-15T12:11:21.167Z,96663.44
2023-01-15T12:14:03.750Z,96664.06
2023-01-15T12:16:41.838Z,96663.97
2023-01-15T12:19:16.888Z,96647.59
2023-01-15T12:22:09.209Z,96642.19
2023-01-15T12:24:57.783Z,96635.06
2023-01-15T12:27:57.055Z,96629.44
2023-01-15T12:30:32.627Z,96638.59
2023-01-15T12:33:16.407Z,96644.63
2023-01-15T12:35:57.624Z,96648.63
2023-01-15T12:38:42.189Z,96640.50
2023-01-15T12:41:15.495Z,96633.34
2023-01-15T12:44:05.783Z,96625.19
2023-01-15T12:46:36.956Z,96626.78
2023-01-15T12:49:16.270Z,96606.63
2023-01-15T12:51:52.470Z,96598.63
2023-01-15T12:54:26.037Z,96619.34
2023-01-15T12:57:02.946Z,96622.81
2023-01-15T12:59:38.540Z,96621.19
2023-01-15T13:02:16.770Z,96615.19
2023-01-15T13:04:53.501Z,96607.09
2023-01-15T13:07:29.283Z,96612.09
2023-01-15T13:10:07.782Z,96600.88
2023-01-15T13:12:41.418Z,96600.66
2023-01-15T13:15:17.824Z,96613.38
2023-01-15T13:18:01.103Z,96616.00
2023-01-15T13:20:43.549Z,96613.50
2023-01-15T13:23:26.449Z,96610.75
2023-01-15T13:26:09.472Z,96605.31
2023-01-15T13:28:53.153Z,96606.63
2023-01-15T13:31:46.311Z,96603.03
2023-01-15T13:34:24.663Z,96582.53
2023-01-15T13:36:58.348Z,96581.66
2023-01-15T13:39:38.816Z,96588.28
2023-01-15T13:42:31.023Z,96585.19
2023-01-15T13:45:26.931Z,96588.91
2023-01-15T13:48:00.250Z,96595.69
2023-01-15T13:50:44.261Z,96603.22
2023-01-15T13:53:28.142Z,96600.19
2023-01-15T13:56:02.903Z,96595.56
2023-01-15T13:58:34.828Z,96596.19
2023-01-15T14:01:24.449Z,96596.97
2023-01-15T14:04:05.632Z,96609.84
2023-01-15T14:06:41.762Z,96615.06
2023-01-15T14:09:34.500Z,96609.66
2023-01-15T14:12:15.183Z,96617.06
2023-01-15T14:15:03.106Z,96617.75
2023-01-15T14:17:52.776Z,96610.97
2023-01-15T14:20:44.619Z,96619.66
2023-01-15T14:23:31.854Z,96615.31
2023-01-15T14:26:13.029Z,96620.19
2023-01-15T14:29:12.037Z,96637.22
2023-01-15T14:31:51.399Z,96631.50
2023-01-15T14:34:24.955Z,96643.09
2023-01-15T14:37:00.912Z,96641.72
2023-01-15T14:39:42.397Z,96661.81
2023-01-15T14:42:35.433Z,96661.13
2023-01-15T14:45:09.589Z,96657.88
2023-01-15T14:47:48.150Z,96662.44
2023-01-15T14:50:28.351Z,96665.50
2023-01-15T14:53:07.976Z,96663.44
2023-01-15T14:55:41.927Z,96662.44
2023-01-15T14:58:37.385Z,96681.19
2023-01-15T15:01:17.819Z,96680.69
2023-01-15T15:03:53.800Z,96680.88
2023-01-15T15:06:24.591Z,96685.00
2023-01-15T15:08:59.540Z,96691.44
2023-01-15T15:11:54.564Z,96699.28
2023-01-15T15:14:30.418Z,96693.91
2023-01-15T15:17:03.745Z,96685.31
2023-01-15T15:19:41.175Z,96678.03
2023-01-15T15:22:17.042Z,96666.84
2023-01-15T15:24:50.308Z,96666.03
2023-01-15T15:27:22.318Z,96670.09
2023-01-15T15:29:54.954Z,96674.00
2023-01-15T15:32:26.487Z,96672.94
2023-01-15T15:34:57.932Z,96667.34
2023-01-15T15:37:29.768Z,96668.75
2023-01-15T15:40:02.679Z,96684.97
2023-01-15T15:42:53.545Z,96684.31
2023-01-15T15:45:45.379Z,96690.53
2023-01-15T15:48:36.539Z,96691.78
2023-01-15T15:51:07.291Z,96687.03
2023-01-15T15:53:38.800Z,96690.06
2023-01-15T15:56:10.202Z,96687.72
2023-01-15T15:58:40.871Z,96695.69
2023-01-15T16:01:16.601Z,96705.50
2023-01-15T16:03:51.757Z,96703.19
2023-01-15T16:06:25.164Z,96705.28
2023-01-15T16:08:56.717Z,96702.00
2023-01-15T16:11:28.715Z,96716.06
2023-01-15T16:14:00.361Z,96729.53
2023-01-15T16:16:33.651Z,96740.09
2023-01-15T16:19:04.533Z,96730.91
2023-01-15T16:21:36.847Z,96736.13
2023-01-15T16:24:10.292Z,96759.22
2023-01-15T16:26:42.050Z,96764.69
2023-01-15T16:29:19.867Z,96752.53
2023-01-15T16:31:51.755Z,96759.09
2023-01-15T16:34:25.818Z,96775.75
2023-01-15T16:37:25.556Z,96779.03
2023-01-15T16:39:56.228Z,96787.84
2023-01-15T16:42:30.054Z,96780.53
2023-01-15T16:45:08.834Z,96773.13
2023-01-15T16:47:40.745Z,96785.63
2023-01-15T16:50:30.934Z,96792.44
2023-01-15T16:53:02.950Z,96801.50
2023-01-15T16:55:47.191Z,96806.41
2023-01-15T16:58:37.553Z,96815.63
2023-01-15T17:01:35.313Z,96823.81
2023-01-15T17:04:15.743Z,96825.19
2023-01-15T17:06:45.518Z,96836.31
2023-01-15T17:09:17.610Z,96840.84
2023-01-15T17:11:52.638Z,96840.06
2023-01-15T17:14:24.949Z,96825.41
2023-01-15T17:17:24.507Z,96829.84
2023-01-15T17:19:58.955Z,96829.03
2023-01-15T17:22:34.022Z,96830.28
2023-01-15T17:25:04.189Z,96829.28
2023-01-15T17:27:34.800Z,96840.94
2023-01-15T17:30:05.379Z,96843.47
2023-01-15T17:32:42.568Z,96841.63
2023-01-15T17:35:24.733Z,96840.56
2023-01-15T17:37:59.048Z,96839.00
2023-01-15T17:40:39.693Z,96834.34
2023-01-15T17:43:13.803Z,96841.22
2023-01-15T17:45:44.723Z,96853.59
2023-01-15T17:48:15.429Z,96840.41
2023-01-15T17:50:47.735Z,96847.31
2023-01-15T17:53:18.435Z,96845.28
2023-01-15T17:56:05.715Z,96849.63
2023-01-15T17:58:53.712Z,96847.31
2023-01-15T18:01:42.357Z,96858.22
2023-01-15T18:04:36.170Z,96875.94
2023-01-15T18:07:08.651Z,96875.78
2023-01-15T18:09:39.950Z,96873.81
2023-01-15T18:12:10.516Z,96875.34
2023-01-15T18:14:40.759Z,96883.88
2023-01-15T18:17:11.849Z,96891.38
2023-01-15T18:19:42.248Z,96894.78
2023-01-15T18:22:15.132Z,96896.06
2023-01-15T18:24:45.595Z,96907.41
2023-01-15T18:27:16.526Z,96904.22
2023-01-15T18:29:47.520Z,96901.31
2023-01-15T18:32:18.028Z,96908.13
2023-01-15T18:34:48.582Z,96904.00
2023-01-15T18:37:20.448Z,96907.53
2023-01-15T18:39:51.681Z,96905.25
2023-01-15T18:42:39.762Z,96901.00
2023-01-15T18:45:29.362Z,96904.72
2023-01-15T18:48:01.695Z,96897.16
2023-01-15T18:50:35.699Z,96904.44
2023-01-15T18:53:09.846Z,96900.66
2023-01-15T18:55:40.173Z,96902.94
2023-01-15T18:58:10.586Z,96897.19
2023-01-15T19:00:41.188Z,96910.72
2023-01-15T19:03:11.322Z,96907.56
2023-01-15T19:05:41.725Z,96906.09
2023-01-15T19:08:14.001Z,96905.72
2023-01-15T19:10:44.411Z,96906.50
2023-01-15T19:13:19.340Z,96895.31
2023-01-15T19:16:07.487Z,96889.56
2023-01-15T19:18:52.705Z,96897.47
2023-01-15T19:21:23.296Z,96900.97
2023-01-15T19:23:55.416Z,96900.47
2023-01-15T19:26:26.163Z,96901.22
2023-01-15T19:28:56.696Z,96896.63
2023-01-15T19:31:39.855Z,96891.28
2023-01-15T19:34:33.001Z,96900.31
2023-01-15T19:37:02.185Z,96893.75
2023-01-15T19:39:33.637Z,96894.63
2023-01-15T19:42:21.429Z,96898.06
2023-01-15T19:45:11.678Z,96905.06
2023-01-15T19:48:00.511Z,96903.59
2023-01-15T19:50:37.677Z,96907.41
2023-01-15T19:53:09.431Z,96915.50
2023-01-15T19:55:43.923Z,96926.69
2023-01-15T19:58:15.070Z,96924.38
2023-01-15T20:00:48.799Z,96918.25
2023-01-15T20:03:19.892Z,96918.78
2023-01-15T20:05:50.117Z,96911.91
2023-01-15T20:08:20.846Z,96914.66
2023-01-15T20:10:53.102Z,96918.72
2023-01-15T20:13:41.736Z,96927.59
2023-01-15T20:16:13.514Z,96935.25
2023-01-15T20:18:44.162Z,96942.47
2023-01-15T20:21:15.912Z,96936.50
2023-01-15T20:23:46.922Z,96936.69
2023-01-15T20:26:18.859Z,96941.47
2023-01-15T20:28:49.808Z,96938.03
2023-01-15T20:31:20.394Z,96934.63
2023-01-15T20:33:51.445Z,96929.41
2023-01-15T20:36:21.399Z,96935.38
2023-01-15T20:38:51.648Z,96931.47
2023-01-15T20:41:40.789Z,96931.94
2023-01-15T20:44:31.683Z,96943.06
2023-01-15T20:47:24.553Z,96944.50
2023-01-15T20:49:55.393Z,96942.91
2023-01-15T20:52:25.564Z,96951.91
2023-01-15T20:54:56.134Z,96951.34
2023-01-15T20:57:28.345Z,96954.34
2023-01-15T20:59:58.578Z,96946.50
2023-01-15T21:02:29.067Z,96943.34
2023-01-15T21:04:58.943Z,96944.47
2023-01-15T21:07:29.711Z,96945.72
2023-01-15T21:09:59.475Z,96954.63
2023-01-15T21:12:35.363Z,96946.94
2023-01-15T21:15:06.297Z,96937.69
2023-01-15T21:17:36.347Z,96931.59
2023-01-15T21:20:08.029Z,96924.59
2023-01-15T21:22:38.688Z,96916.16
2023-01-15T21:25:13.697Z,96911.53
2023-01-15T21:27:46.060Z,96912.97
2023-01-15T21:30:16.534Z,96919.13
2023-01-15T21:32:49.367Z,96908.66
2023-01-15T21:35:20.451Z,96922.97
2023-01-15T21:37:50.437Z,96918.22
2023-01-15T21:40:20.880Z,96932.50
2023-01-15T21:43:09.717Z,96941.44
2023-01-15T21:45:39.837Z,96942.13
2023-01-15T21:48:10.624Z,96944.16
2023-01-15T21:50:41.359Z,96933.75
2023-01-15T21:53:11.372Z,96939.09
2023-01-15T21:55:42.003Z,96932.78
2023-01-15T21:58:14.312Z,96935.97
2023-01-15T22:00:44.362Z,96933.41
2023-01-15T22:03:18.267Z,96932.13
2023-01-15T22:05:48.418Z,96934.31
2023-01-15T22:08:19.224Z,96938.56
2023-01-15T22:10:50.101Z,96928.38
2023-01-15T22:13:22.074Z,96909.75
2023-01-15T22:15:56.419Z,96924.28
2023-01-15T22:18:28.509Z,96915.91
2023-01-15T22:21:00.725Z,96919.78
2023-01-15T22:23:31.191Z,96919.94
2023-01-15T22:26:01.581Z,96913.75
2023-01-15T22:28:33.179Z,96892.16
2023-01-15T22:31:08.311Z,96905.34
2023-01-15T22:33:39.040Z,96900.59
2023-01-15T22:36:13.338Z,96905.06
2023-01-15T22:38:43.884Z,96903.66
2023-01-15T22:41:14.132Z,96906.63
2023-01-15T22:43:45.868Z,96899.69
2023-01-15T22:46:17.174Z,96899.41
2023-01-15T22:48:48.569Z,96894.25
2023-01-15T22:51:18.284Z,96890.00
2023-01-15T22:53:48.690Z,96886.81
2023-01-15T22:56:18.849Z,96882.47
2023-01-15T22:58:50.891Z,96873.78
2023-01-15T23:01:21.692Z,96878.50
2023-01-15T23:03:52.811Z,96874.69
2023-01-15T23:06:25.051Z,96873.72
2023-01-15T23:08:59.528Z,96876.84
2023-01-15T23:11:30.324Z,96884.66
2023-01-15T23:14:01.934Z,96869.47
2023-01-15T23:16:32.664Z,96859.38
2023-01-15T23:19:02.199Z,96878.59
2023-01-15T23:21:32.962Z,96875.16
2023-01-15T23:24:05.214Z,96874.00
2023-01-15T23:26:36.426Z,96879.06
2023-01-15T23:29:08.075Z,96872.91
2023-01-15T23:31:38.811Z,96857.53
2023-01-15T23:34:10.424Z,96846.66
2023-01-15T23:36:40.357Z,96853.75
2023-01-15T23:39:11.525Z,96856.66
2023-01-15T23:41:58.618Z,96864.97
2023-01-15T23:44:56.631Z,96873.31
2023-01-15T23:47:26.377Z,96853.03
2023-01-15T23:49:57.902Z,96846.09
2023-01-15T23:52:28.046Z,96838.63
2023-01-15T23:54:58.418Z,96855.34
2023-01-15T23:57:28.909Z,96851.00
